sensor_id;sensor_type;location;lat;lon;timestamp;P1;durP1;ratioP1;P2;durP2;ratioP2
30519;SDS011;17300;50.374;8.006;2024-01-06T00:02:12;2.00;;;0.97;;
30519;SDS011;17300;50.374;8.006;2024-01-06T00:04:40;2.20;;;0.80;;
30519;SDS011;17300;50.374;8.006;2024-01-06T00:07:07;1.47;;;0.70;;
30519;SDS011;17300;50.374;8.006;2024-01-06T00:09:34;1.97;;;0.70;;
30519;SDS011;17300;50.374;8.006;2024-01-06T00:12:00;1.50;;;0.80;;
30519;SDS011;17300;50.374;8.006;2024-01-06T00:14:27;2.43;;;1.00;;
30519;SDS011;17300;50.374;8.006;2024-01-06T00:16:54;1.23;;;0.80;;
30519;SDS011;17300;50.374;8.006;2024-01-06T00:19:21;1.80;;;0.70;;
30519;SDS011;17300;50.374;8.006;2024-01-06T00:21:49;1.17;;;0.77;;
30519;SDS011;17300;50.374;8.006;2024-01-06T00:24:15;0.60;;;0.60;;
30519;SDS011;17300;50.374;8.006;2024-01-06T00:26:42;2.07;;;0.90;;
30519;SDS011;17300;50.374;8.006;2024-01-06T00:29:08;0.60;;;0.60;;
30519;SDS011;17300;50.374;8.006;2024-01-06T00:31:35;1.80;;;0.67;;
30519;SDS011;17300;50.374;8.006;2024-01-06T00:34:02;1.00;;;0.63;;
30519;SDS011;17300;50.374;8.006;2024-01-06T00:36:28;1.03;;;0.70;;
30519;SDS011;17300;50.374;8.006;2024-01-06T00:38:56;2.07;;;0.70;;
30519;SDS011;17300;50.374;8.006;2024-01-06T00:41:23;0.97;;;0.73;;
30519;SDS011;17300;50.374;8.006;2024-01-06T00:43:50;1.07;;;0.70;;
30519;SDS011;17300;50.374;8.006;2024-01-06T00:46:16;0.80;;;0.60;;
30519;SDS011;17300;50.374;8.006;2024-01-06T00:48:43;1.40;;;0.67;;
30519;SDS011;17300;50.374;8.006;2024-01-06T00:51:10;0.83;;;0.60;;
30519;SDS011;17300;50.374;8.006;2024-01-06T00:53:36;1.23;;;0.70;;
30519;SDS011;17300;50.374;8.006;2024-01-06T00:56:05;1.73;;;0.80;;
30519;SDS011;17300;50.374;8.006;2024-01-06T00:58:31;0.90;;;0.60;;
30519;SDS011;17300;50.374;8.006;2024-01-06T01:00:58;1.03;;;0.60;;
30519;SDS011;17300;50.374;8.006;2024-01-06T01:03:25;0.90;;;0.60;;
30519;SDS011;17300;50.374;8.006;2024-01-06T01:05:51;1.30;;;0.60;;
30519;SDS011;17300;50.374;8.006;2024-01-06T01:08:18;1.27;;;0.73;;
30519;SDS011;17300;50.374;8.006;2024-01-06T01:10:45;1.03;;;0.80;;
30519;SDS011;17300;50.374;8.006;2024-01-06T01:13:13;1.20;;;0.80;;
30519;SDS011;17300;50.374;8.006;2024-01-06T01:15:40;1.07;;;0.70;;
30519;SDS011;17300;50.374;8.006;2024-01-06T01:18:07;0.50;;;0.50;;
30519;SDS011;17300;50.374;8.006;2024-01-06T01:20:33;0.70;;;0.70;;
30519;SDS011;17300;50.374;8.006;2024-01-06T01:23:00;0.80;;;0.70;;
30519;SDS011;17300;50.374;8.006;2024-01-06T01:25:27;1.03;;;0.70;;
30519;SDS011;17300;50.374;8.006;2024-01-06T01:27:53;1.53;;;1.13;;
30519;SDS011;17300;50.374;8.006;2024-01-06T01:30:21;2.00;;;1.03;;
30519;SDS011;17300;50.374;8.006;2024-01-06T01:32:48;1.10;;;1.00;;
30519;SDS011;17300;50.374;8.006;2024-01-06T01:35:14;1.13;;;0.87;;
30519;SDS011;17300;50.374;8.006;2024-01-06T01:37:41;1.00;;;0.90;;
30519;SDS011;17300;50.374;8.006;2024-01-06T01:40:08;2.80;;;1.13;;
30519;SDS011;17300;50.374;8.006;2024-01-06T01:42:35;1.43;;;1.03;;
30519;SDS011;17300;50.374;8.006;2024-01-06T01:45:03;2.13;;;1.60;;
30519;SDS011;17300;50.374;8.006;2024-01-06T01:47:31;2.27;;;1.47;;
30519;SDS011;17300;50.374;8.006;2024-01-06T01:49:58;3.03;;;1.43;;
30519;SDS011;17300;50.374;8.006;2024-01-06T01:52:26;2.47;;;1.80;;
30519;SDS011;17300;50.374;8.006;2024-01-06T01:54:53;2.87;;;1.70;;
30519;SDS011;17300;50.374;8.006;2024-01-06T01:57:20;3.07;;;1.90;;
30519;SDS011;17300;50.374;8.006;2024-01-06T01:59:49;2.30;;;1.77;;
30519;SDS011;17300;50.374;8.006;2024-01-06T02:02:17;2.23;;;1.63;;
30519;SDS011;17300;50.374;8.006;2024-01-06T02:04:45;3.20;;;1.70;;
30519;SDS011;17300;50.374;8.006;2024-01-06T02:07:13;4.17;;;2.43;;
30519;SDS011;17300;50.374;8.006;2024-01-06T02:09:39;2.50;;;1.70;;
30519;SDS011;17300;50.374;8.006;2024-01-06T02:12:06;2.50;;;1.80;;
30519;SDS011;17300;50.374;8.006;2024-01-06T02:14:33;2.30;;;1.70;;
30519;SDS011;17300;50.374;8.006;2024-01-06T02:17:00;1.93;;;1.33;;
30519;SDS011;17300;50.374;8.006;2024-01-06T02:19:26;2.07;;;1.43;;
30519;SDS011;17300;50.374;8.006;2024-01-06T02:21:54;1.93;;;1.10;;
30519;SDS011;17300;50.374;8.006;2024-01-06T02:24:21;2.50;;;1.40;;
30519;SDS011;17300;50.374;8.006;2024-01-06T02:26:48;1.37;;;1.10;;
30519;SDS011;17300;50.374;8.006;2024-01-06T02:29:15;2.03;;;1.30;;
30519;SDS011;17300;50.374;8.006;2024-01-06T02:31:42;2.07;;;1.10;;
30519;SDS011;17300;50.374;8.006;2024-01-06T02:34:09;1.23;;;1.07;;
30519;SDS011;17300;50.374;8.006;2024-01-06T02:36:35;1.80;;;1.13;;
30519;SDS011;17300;50.374;8.006;2024-01-06T02:39:03;3.70;;;1.47;;
30519;SDS011;17300;50.374;8.006;2024-01-06T02:41:30;1.73;;;1.20;;
30519;SDS011;17300;50.374;8.006;2024-01-06T02:43:57;1.97;;;1.30;;
30519;SDS011;17300;50.374;8.006;2024-01-06T02:46:24;1.83;;;1.30;;
30519;SDS011;17300;50.374;8.006;2024-01-06T02:48:50;2.07;;;1.30;;
30519;SDS011;17300;50.374;8.006;2024-01-06T02:51:17;1.60;;;1.10;;
30519;SDS011;17300;50.374;8.006;2024-01-06T02:53:44;5.33;;;1.30;;
30519;SDS011;17300;50.374;8.006;2024-01-06T02:56:12;2.03;;;1.30;;
30519;SDS011;17300;50.374;8.006;2024-01-06T02:58:39;2.03;;;1.10;;
30519;SDS011;17300;50.374;8.006;2024-01-06T03:01:05;1.43;;;1.10;;
30519;SDS011;17300;50.374;8.006;2024-01-06T03:03:32;1.63;;;1.13;;
30519;SDS011;17300;50.374;8.006;2024-01-06T03:05:59;1.37;;;0.90;;
30519;SDS011;17300;50.374;8.006;2024-01-06T03:08:25;1.97;;;1.00;;
30519;SDS011;17300;50.374;8.006;2024-01-06T03:10:52;1.77;;;1.10;;
30519;SDS011;17300;50.374;8.006;2024-01-06T03:13:20;1.57;;;1.00;;
30519;SDS011;17300;50.374;8.006;2024-01-06T03:15:47;1.53;;;1.10;;
30519;SDS011;17300;50.374;8.006;2024-01-06T03:18:13;3.20;;;1.20;;
30519;SDS011;17300;50.374;8.006;2024-01-06T03:20:41;1.97;;;1.17;;
30519;SDS011;17300;50.374;8.006;2024-01-06T03:23:07;1.40;;;1.00;;
30519;SDS011;17300;50.374;8.006;2024-01-06T03:25:34;1.70;;;1.00;;
30519;SDS011;17300;50.374;8.006;2024-01-06T03:28:01;2.23;;;1.00;;
30519;SDS011;17300;50.374;8.006;2024-01-06T03:30:29;2.00;;;1.00;;
30519;SDS011;17300;50.374;8.006;2024-01-06T03:32:55;1.13;;;0.90;;
30519;SDS011;17300;50.374;8.006;2024-01-06T03:35:23;2.30;;;1.37;;
30519;SDS011;17300;50.374;8.006;2024-01-06T03:37:49;0.93;;;0.90;;
30519;SDS011;17300;50.374;8.006;2024-01-06T03:40:16;1.33;;;1.20;;
30519;SDS011;17300;50.374;8.006;2024-01-06T03:42:43;1.30;;;0.83;;
30519;SDS011;17300;50.374;8.006;2024-01-06T03:45:09;1.37;;;0.90;;
30519;SDS011;17300;50.374;8.006;2024-01-06T03:47:37;1.63;;;1.13;;
30519;SDS011;17300;50.374;8.006;2024-01-06T03:50:04;2.23;;;1.10;;
30519;SDS011;17300;50.374;8.006;2024-01-06T03:52:31;1.73;;;1.00;;
30519;SDS011;17300;50.374;8.006;2024-01-06T03:54:58;0.90;;;0.90;;
30519;SDS011;17300;50.374;8.006;2024-01-06T03:57:25;1.67;;;1.20;;
30519;SDS011;17300;50.374;8.006;2024-01-06T03:59:51;1.53;;;1.10;;
30519;SDS011;17300;50.374;8.006;2024-01-06T04:02:18;1.23;;;1.00;;
30519;SDS011;17300;50.374;8.006;2024-01-06T04:04:46;1.77;;;1.00;;
30519;SDS011;17300;50.374;8.006;2024-01-06T04:07:13;0.90;;;0.80;;
30519;SDS011;17300;50.374;8.006;2024-01-06T04:09:41;1.63;;;0.87;;
30519;SDS011;17300;50.374;8.006;2024-01-06T04:12:08;1.27;;;0.90;;
30519;SDS011;17300;50.374;8.006;2024-01-06T04:14:35;1.70;;;0.83;;
30519;SDS011;17300;50.374;8.006;2024-01-06T04:17:01;1.20;;;0.83;;
30519;SDS011;17300;50.374;8.006;2024-01-06T04:19:28;1.07;;;0.90;;
30519;SDS011;17300;50.374;8.006;2024-01-06T04:21:56;2.47;;;1.30;;
30519;SDS011;17300;50.374;8.006;2024-01-06T04:24:23;2.40;;;1.20;;
30519;SDS011;17300;50.374;8.006;2024-01-06T04:26:50;3.07;;;1.60;;
30519;SDS011;17300;50.374;8.006;2024-01-06T04:29:16;2.20;;;1.13;;
30519;SDS011;17300;50.374;8.006;2024-01-06T04:31:43;1.50;;;1.00;;
30519;SDS011;17300;50.374;8.006;2024-01-06T04:34:10;1.63;;;1.20;;
30519;SDS011;17300;50.374;8.006;2024-01-06T04:36:36;1.10;;;0.90;;
30519;SDS011;17300;50.374;8.006;2024-01-06T04:39:04;2.00;;;1.13;;
30519;SDS011;17300;50.374;8.006;2024-01-06T04:41:31;2.43;;;1.20;;
30519;SDS011;17300;50.374;8.006;2024-01-06T04:43:58;2.70;;;1.10;;
30519;SDS011;17300;50.374;8.006;2024-01-06T04:46:25;1.20;;;1.00;;
30519;SDS011;17300;50.374;8.006;2024-01-06T04:48:51;1.83;;;1.00;;
30519;SDS011;17300;50.374;8.006;2024-01-06T04:51:18;1.90;;;1.00;;
30519;SDS011;17300;50.374;8.006;2024-01-06T04:53:45;1.40;;;0.90;;
30519;SDS011;17300;50.374;8.006;2024-01-06T04:56:12;2.17;;;1.00;;
30519;SDS011;17300;50.374;8.006;2024-01-06T04:58:39;1.43;;;1.10;;
30519;SDS011;17300;50.374;8.006;2024-01-06T05:01:06;2.40;;;1.17;;
30519;SDS011;17300;50.374;8.006;2024-01-06T05:03:33;0.83;;;0.83;;
30519;SDS011;17300;50.374;8.006;2024-01-06T05:05:59;0.80;;;0.80;;
30519;SDS011;17300;50.374;8.006;2024-01-06T05:08:26;1.20;;;0.73;;
30519;SDS011;17300;50.374;8.006;2024-01-06T05:10:55;1.43;;;0.90;;
30519;SDS011;17300;50.374;8.006;2024-01-06T05:13:23;1.10;;;1.00;;
30519;SDS011;17300;50.374;8.006;2024-01-06T05:15:50;1.70;;;0.80;;
30519;SDS011;17300;50.374;8.006;2024-01-06T05:18:16;1.47;;;1.17;;
30519;SDS011;17300;50.374;8.006;2024-01-06T05:20:43;1.20;;;0.87;;
30519;SDS011;17300;50.374;8.006;2024-01-06T05:23:10;1.00;;;0.83;;
30519;SDS011;17300;50.374;8.006;2024-01-06T05:25:36;1.10;;;1.00;;
30519;SDS011;17300;50.374;8.006;2024-01-06T05:28:02;1.60;;;0.90;;
30519;SDS011;17300;50.374;8.006;2024-01-06T05:30:30;0.60;;;0.60;;
30519;SDS011;17300;50.374;8.006;2024-01-06T05:32:57;1.00;;;0.80;;
30519;SDS011;17300;50.374;8.006;2024-01-06T05:35:24;1.17;;;0.70;;
30519;SDS011;17300;50.374;8.006;2024-01-06T05:37:50;1.47;;;0.90;;
30519;SDS011;17300;50.374;8.006;2024-01-06T05:40:17;1.17;;;0.90;;
30519;SDS011;17300;50.374;8.006;2024-01-06T05:42:44;0.73;;;0.70;;
30519;SDS011;17300;50.374;8.006;2024-01-06T05:45:10;1.63;;;0.80;;
30519;SDS011;17300;50.374;8.006;2024-01-06T05:47:39;2.43;;;0.90;;
30519;SDS011;17300;50.374;8.006;2024-01-06T05:50:06;1.10;;;1.00;;
30519;SDS011;17300;50.374;8.006;2024-01-06T05:52:34;1.27;;;0.70;;
30519;SDS011;17300;50.374;8.006;2024-01-06T05:55:01;1.43;;;1.00;;
30519;SDS011;17300;50.374;8.006;2024-01-06T05:57:27;1.60;;;1.00;;
30519;SDS011;17300;50.374;8.006;2024-01-06T05:59:54;1.27;;;0.83;;
30519;SDS011;17300;50.374;8.006;2024-01-06T06:02:21;2.07;;;1.00;;
30519;SDS011;17300;50.374;8.006;2024-01-06T06:04:49;1.73;;;0.90;;
30519;SDS011;17300;50.374;8.006;2024-01-06T06:07:15;1.00;;;0.80;;
30519;SDS011;17300;50.374;8.006;2024-01-06T06:09:42;4.07;;;0.80;;
30519;SDS011;17300;50.374;8.006;2024-01-06T06:12:12;1.00;;;0.80;;
30519;SDS011;17300;50.374;8.006;2024-01-06T06:14:38;1.17;;;0.80;;
30519;SDS011;17300;50.374;8.006;2024-01-06T06:17:05;0.63;;;0.63;;
30519;SDS011;17300;50.374;8.006;2024-01-06T06:19:33;1.07;;;0.93;;
30519;SDS011;17300;50.374;8.006;2024-01-06T06:22:01;1.00;;;0.90;;
30519;SDS011;17300;50.374;8.006;2024-01-06T06:24:28;1.17;;;0.97;;
30519;SDS011;17300;50.374;8.006;2024-01-06T06:26:54;0.70;;;0.60;;
30519;SDS011;17300;50.374;8.006;2024-01-06T06:29:21;1.23;;;1.10;;
30519;SDS011;17300;50.374;8.006;2024-01-06T06:31:49;1.00;;;0.90;;
30519;SDS011;17300;50.374;8.006;2024-01-06T06:34:15;0.90;;;0.80;;
30519;SDS011;17300;50.374;8.006;2024-01-06T06:36:42;0.97;;;0.70;;
30519;SDS011;17300;50.374;8.006;2024-01-06T06:39:10;1.40;;;1.10;;
30519;SDS011;17300;50.374;8.006;2024-01-06T06:41:37;1.43;;;1.00;;
30519;SDS011;17300;50.374;8.006;2024-01-06T06:44:03;1.43;;;0.90;;
30519;SDS011;17300;50.374;8.006;2024-01-06T06:46:30;1.87;;;1.10;;
30519;SDS011;17300;50.374;8.006;2024-01-06T06:48:57;1.00;;;0.90;;
30519;SDS011;17300;50.374;8.006;2024-01-06T06:51:24;1.30;;;1.10;;
30519;SDS011;17300;50.374;8.006;2024-01-06T06:53:52;1.00;;;0.90;;
30519;SDS011;17300;50.374;8.006;2024-01-06T06:56:20;1.07;;;0.90;;
30519;SDS011;17300;50.374;8.006;2024-01-06T06:58:47;1.40;;;0.83;;
30519;SDS011;17300;50.374;8.006;2024-01-06T07:01:13;2.43;;;1.20;;
30519;SDS011;17300;50.374;8.006;2024-01-06T07:03:40;1.10;;;1.00;;
30519;SDS011;17300;50.374;8.006;2024-01-06T07:06:07;0.80;;;0.80;;
30519;SDS011;17300;50.374;8.006;2024-01-06T07:08:34;0.80;;;0.80;;
30519;SDS011;17300;50.374;8.006;2024-01-06T07:11:03;1.57;;;0.93;;
30519;SDS011;17300;50.374;8.006;2024-01-06T07:13:31;1.80;;;1.07;;
30519;SDS011;17300;50.374;8.006;2024-01-06T07:15:58;1.53;;;0.93;;
30519;SDS011;17300;50.374;8.006;2024-01-06T07:18:24;0.83;;;0.80;;
30519;SDS011;17300;50.374;8.006;2024-01-06T07:20:51;1.50;;;1.00;;
30519;SDS011;17300;50.374;8.006;2024-01-06T07:23:18;1.40;;;0.93;;
30519;SDS011;17300;50.374;8.006;2024-01-06T07:25:44;1.07;;;0.97;;
30519;SDS011;17300;50.374;8.006;2024-01-06T07:28:11;1.10;;;1.00;;
30519;SDS011;17300;50.374;8.006;2024-01-06T07:30:39;1.10;;;1.00;;
30519;SDS011;17300;50.374;8.006;2024-01-06T07:33:06;1.10;;;0.80;;
30519;SDS011;17300;50.374;8.006;2024-01-06T07:35:33;1.37;;;0.90;;
30519;SDS011;17300;50.374;8.006;2024-01-06T07:38:00;1.90;;;1.40;;
30519;SDS011;17300;50.374;8.006;2024-01-06T07:40:26;1.93;;;1.60;;
30519;SDS011;17300;50.374;8.006;2024-01-06T07:42:53;2.27;;;2.07;;
30519;SDS011;17300;50.374;8.006;2024-01-06T07:45:20;2.40;;;2.17;;
30519;SDS011;17300;50.374;8.006;2024-01-06T07:47:48;2.40;;;1.67;;
30519;SDS011;17300;50.374;8.006;2024-01-06T07:50:14;1.73;;;1.60;;
30519;SDS011;17300;50.374;8.006;2024-01-06T07:52:41;1.57;;;1.47;;
30519;SDS011;17300;50.374;8.006;2024-01-06T07:55:08;2.30;;;1.40;;
30519;SDS011;17300;50.374;8.006;2024-01-06T07:57:34;2.23;;;1.17;;
30519;SDS011;17300;50.374;8.006;2024-01-06T08:00:01;1.93;;;1.30;;
30519;SDS011;17300;50.374;8.006;2024-01-06T08:02:28;2.23;;;1.30;;
30519;SDS011;17300;50.374;8.006;2024-01-06T08:04:56;1.83;;;1.50;;
30519;SDS011;17300;50.374;8.006;2024-01-06T08:07:23;1.93;;;1.30;;
30519;SDS011;17300;50.374;8.006;2024-01-06T08:09:50;1.30;;;1.20;;
30519;SDS011;17300;50.374;8.006;2024-01-06T08:12:17;1.90;;;1.30;;
30519;SDS011;17300;50.374;8.006;2024-01-06T08:14:44;1.73;;;1.20;;
30519;SDS011;17300;50.374;8.006;2024-01-06T08:17:10;3.67;;;1.50;;
30519;SDS011;17300;50.374;8.006;2024-01-06T08:19:37;1.77;;;1.40;;
30519;SDS011;17300;50.374;8.006;2024-01-06T08:22:05;1.80;;;1.20;;
30519;SDS011;17300;50.374;8.006;2024-01-06T08:24:31;1.60;;;1.30;;
30519;SDS011;17300;50.374;8.006;2024-01-06T08:26:58;1.27;;;1.17;;
30519;SDS011;17300;50.374;8.006;2024-01-06T08:29:25;2.50;;;1.30;;
30519;SDS011;17300;50.374;8.006;2024-01-06T08:31:52;1.77;;;1.20;;
30519;SDS011;17300;50.374;8.006;2024-01-06T08:34:19;1.93;;;1.33;;
30519;SDS011;17300;50.374;8.006;2024-01-06T08:36:46;1.60;;;1.30;;
30519;SDS011;17300;50.374;8.006;2024-01-06T08:39:14;1.23;;;1.00;;
30519;SDS011;17300;50.374;8.006;2024-01-06T08:41:41;1.20;;;1.10;;
30519;SDS011;17300;50.374;8.006;2024-01-06T08:44:07;1.20;;;1.10;;
30519;SDS011;17300;50.374;8.006;2024-01-06T08:46:34;1.37;;;1.20;;
30519;SDS011;17300;50.374;8.006;2024-01-06T08:49:01;2.23;;;1.73;;
30519;SDS011;17300;50.374;8.006;2024-01-06T08:51:27;2.10;;;1.70;;
30519;SDS011;17300;50.374;8.006;2024-01-06T08:53:55;1.73;;;1.63;;
30519;SDS011;17300;50.374;8.006;2024-01-06T08:56:23;18.30;;;13.40;;
30519;SDS011;17300;50.374;8.006;2024-01-06T08:58:50;10.73;;;7.20;;
30519;SDS011;17300;50.374;8.006;2024-01-06T09:01:17;5.93;;;4.50;;
30519;SDS011;17300;50.374;8.006;2024-01-06T09:03:44;3.13;;;2.50;;
30519;SDS011;17300;50.374;8.006;2024-01-06T09:06:10;2.73;;;2.10;;
30519;SDS011;17300;50.374;8.006;2024-01-06T09:08:37;2.53;;;1.90;;
30519;SDS011;17300;50.374;8.006;2024-01-06T09:11:05;1.47;;;1.37;;
30519;SDS011;17300;50.374;8.006;2024-01-06T09:13:33;1.90;;;1.40;;
30519;SDS011;17300;50.374;8.006;2024-01-06T09:16:00;1.20;;;1.10;;
30519;SDS011;17300;50.374;8.006;2024-01-06T09:18:27;1.50;;;1.30;;
30519;SDS011;17300;50.374;8.006;2024-01-06T09:20:54;1.33;;;1.23;;
30519;SDS011;17300;50.374;8.006;2024-01-06T09:23:21;1.53;;;1.30;;
30519;SDS011;17300;50.374;8.006;2024-01-06T09:25:48;1.60;;;1.20;;
30519;SDS011;17300;50.374;8.006;2024-01-06T09:28:17;2.10;;;1.20;;
30519;SDS011;17300;50.374;8.006;2024-01-06T09:30:45;1.30;;;1.03;;
30519;SDS011;17300;50.374;8.006;2024-01-06T09:33:11;1.53;;;1.30;;
30519;SDS011;17300;50.374;8.006;2024-01-06T09:35:40;1.73;;;1.30;;
30519;SDS011;17300;50.374;8.006;2024-01-06T09:38:07;1.80;;;1.23;;
30519;SDS011;17300;50.374;8.006;2024-01-06T09:40:33;1.53;;;1.00;;
30519;SDS011;17300;50.374;8.006;2024-01-06T09:43:01;1.23;;;0.90;;
30519;SDS011;17300;50.374;8.006;2024-01-06T09:45:28;1.57;;;1.30;;
30519;SDS011;17300;50.374;8.006;2024-01-06T09:47:56;1.63;;;1.20;;
30519;SDS011;17300;50.374;8.006;2024-01-06T09:50:25;2.27;;;1.30;;
30519;SDS011;17300;50.374;8.006;2024-01-06T09:52:52;2.43;;;1.20;;
30519;SDS011;17300;50.374;8.006;2024-01-06T09:55:29;2.10;;;1.30;;
30519;SDS011;17300;50.374;8.006;2024-01-06T09:57:55;1.53;;;1.30;;
30519;SDS011;17300;50.374;8.006;2024-01-06T10:00:22;2.17;;;1.63;;
30519;SDS011;17300;50.374;8.006;2024-01-06T10:02:49;2.50;;;1.27;;
30519;SDS011;17300;50.374;8.006;2024-01-06T10:05:17;1.50;;;1.10;;
30519;SDS011;17300;50.374;8.006;2024-01-06T10:07:44;1.53;;;1.23;;
30519;SDS011;17300;50.374;8.006;2024-01-06T10:10:11;1.63;;;1.27;;
30519;SDS011;17300;50.374;8.006;2024-01-06T10:12:38;1.23;;;1.13;;
30519;SDS011;17300;50.374;8.006;2024-01-06T10:15:06;9.63;;;7.30;;
30519;SDS011;17300;50.374;8.006;2024-01-06T10:17:35;10.13;;;7.40;;
30519;SDS011;17300;50.374;8.006;2024-01-06T10:20:03;5.83;;;3.90;;
30519;SDS011;17300;50.374;8.006;2024-01-06T10:22:36;3.53;;;2.90;;
30519;SDS011;17300;50.374;8.006;2024-01-06T10:25:04;2.20;;;1.90;;
30519;SDS011;17300;50.374;8.006;2024-01-06T10:27:33;2.47;;;2.20;;
30519;SDS011;17300;50.374;8.006;2024-01-06T10:30:00;2.23;;;1.77;;
30519;SDS011;17300;50.374;8.006;2024-01-06T10:32:31;2.33;;;1.50;;
30519;SDS011;17300;50.374;8.006;2024-01-06T10:34:58;1.50;;;1.40;;
30519;SDS011;17300;50.374;8.006;2024-01-06T10:37:25;2.53;;;2.10;;
30519;SDS011;17300;50.374;8.006;2024-01-06T10:40:05;12.50;;;10.57;;
30519;SDS011;17300;50.374;8.006;2024-01-06T10:42:33;9.27;;;6.67;;
30519;SDS011;17300;50.374;8.006;2024-01-06T10:45:00;4.23;;;3.83;;
30519;SDS011;17300;50.374;8.006;2024-01-06T10:47:27;3.27;;;2.87;;
30519;SDS011;17300;50.374;8.006;2024-01-06T10:49:57;2.50;;;2.30;;
30519;SDS011;17300;50.374;8.006;2024-01-06T10:52:26;2.80;;;1.90;;
30519;SDS011;17300;50.374;8.006;2024-01-06T10:54:53;2.47;;;2.13;;
30519;SDS011;17300;50.374;8.006;2024-01-06T10:57:22;2.57;;;1.97;;
30519;SDS011;17300;50.374;8.006;2024-01-06T10:59:50;2.30;;;1.90;;
30519;SDS011;17300;50.374;8.006;2024-01-06T11:02:17;2.40;;;1.80;;
30519;SDS011;17300;50.374;8.006;2024-01-06T11:56:00;4.07;;;3.60;;
30519;SDS011;17300;50.374;8.006;2024-01-06T12:09:16;4.37;;;3.97;;
30519;SDS011;17300;50.374;8.006;2024-01-06T14:05:27;2.40;;;2.20;;
30519;SDS011;17300;50.374;8.006;2024-01-06T14:08:15;2.53;;;2.33;;
30519;SDS011;17300;50.374;8.006;2024-01-06T14:10:42;2.30;;;2.10;;
30519;SDS011;17300;50.374;8.006;2024-01-06T14:13:09;3.43;;;3.13;;
30519;SDS011;17300;50.374;8.006;2024-01-06T14:15:36;2.57;;;2.37;;
30519;SDS011;17300;50.374;8.006;2024-01-06T14:18:03;2.50;;;2.30;;
30519;SDS011;17300;50.374;8.006;2024-01-06T14:20:31;2.43;;;2.23;;
30519;SDS011;17300;50.374;8.006;2024-01-06T14:23:03;2.13;;;2.03;;
30519;SDS011;17300;50.374;8.006;2024-01-06T14:25:29;2.23;;;2.03;;
30519;SDS011;17300;50.374;8.006;2024-01-06T14:27:56;1.87;;;1.77;;
30519;SDS011;17300;50.374;8.006;2024-01-06T14:30:23;2.37;;;2.17;;
30519;SDS011;17300;50.374;8.006;2024-01-06T14:32:49;3.83;;;3.03;;
30519;SDS011;17300;50.374;8.006;2024-01-06T14:35:16;3.97;;;3.07;;
30519;SDS011;17300;50.374;8.006;2024-01-06T14:37:44;3.57;;;3.27;;
30519;SDS011;17300;50.374;8.006;2024-01-06T14:40:11;3.67;;;3.37;;
30519;SDS011;17300;50.374;8.006;2024-01-06T14:42:38;2.87;;;2.67;;
30519;SDS011;17300;50.374;8.006;2024-01-06T14:45:05;2.70;;;2.50;;
30519;SDS011;17300;50.374;8.006;2024-01-06T14:47:33;2.80;;;2.50;;
30519;SDS011;17300;50.374;8.006;2024-01-06T14:49:59;2.30;;;2.10;;
30519;SDS011;17300;50.374;8.006;2024-01-06T14:52:26;2.50;;;2.30;;
30519;SDS011;17300;50.374;8.006;2024-01-06T14:54:55;2.10;;;2.00;;
30519;SDS011;17300;50.374;8.006;2024-01-06T14:57:21;2.30;;;2.10;;
30519;SDS011;17300;50.374;8.006;2024-01-06T14:59:48;2.57;;;2.37;;
30519;SDS011;17300;50.374;8.006;2024-01-06T15:02:15;2.60;;;2.40;;
30519;SDS011;17300;50.374;8.006;2024-01-06T15:04:41;2.60;;;2.40;;
30519;SDS011;17300;50.374;8.006;2024-01-06T15:07:08;2.73;;;2.53;;
30519;SDS011;17300;50.374;8.006;2024-01-06T15:09:37;2.63;;;2.43;;
30519;SDS011;17300;50.374;8.006;2024-01-06T15:12:07;3.00;;;2.80;;
30519;SDS011;17300;50.374;8.006;2024-01-06T15:14:33;3.10;;;2.87;;
30519;SDS011;17300;50.374;8.006;2024-01-06T15:17:00;3.17;;;2.93;;
30519;SDS011;17300;50.374;8.006;2024-01-06T15:19:27;3.10;;;2.80;;
30519;SDS011;17300;50.374;8.006;2024-01-06T15:21:56;3.27;;;2.97;;
30519;SDS011;17300;50.374;8.006;2024-01-06T15:24:22;3.20;;;2.90;;
30519;SDS011;17300;50.374;8.006;2024-01-06T15:26:49;2.93;;;2.73;;
30519;SDS011;17300;50.374;8.006;2024-01-06T15:29:18;3.07;;;2.87;;
30519;SDS011;17300;50.374;8.006;2024-01-06T15:31:46;2.70;;;2.50;;
30519;SDS011;17300;50.374;8.006;2024-01-06T15:34:12;3.07;;;2.77;;
30519;SDS011;17300;50.374;8.006;2024-01-06T15:36:39;3.30;;;2.83;;
30519;SDS011;17300;50.374;8.006;2024-01-06T15:39:06;2.70;;;2.50;;
30519;SDS011;17300;50.374;8.006;2024-01-06T15:41:32;2.60;;;2.40;;
30519;SDS011;17300;50.374;8.006;2024-01-06T15:43:59;2.77;;;2.57;;
30519;SDS011;17300;50.374;8.006;2024-01-06T15:46:27;2.93;;;2.63;;
30519;SDS011;17300;50.374;8.006;2024-01-06T15:48:54;3.20;;;2.90;;
30519;SDS011;17300;50.374;8.006;2024-01-06T15:51:20;2.90;;;2.60;;
30519;SDS011;17300;50.374;8.006;2024-01-06T15:53:48;3.27;;;2.97;;
30519;SDS011;17300;50.374;8.006;2024-01-06T15:56:14;3.50;;;3.10;;
30519;SDS011;17300;50.374;8.006;2024-01-06T15:58:41;2.83;;;2.63;;
30519;SDS011;17300;50.374;8.006;2024-01-06T16:01:07;3.40;;;2.70;;
30519;SDS011;17300;50.374;8.006;2024-01-06T16:03:35;3.13;;;2.83;;
30519;SDS011;17300;50.374;8.006;2024-01-06T16:08:49;2.50;;;2.30;;
30519;SDS011;17300;50.374;8.006;2024-01-06T16:11:15;3.13;;;2.60;;
30519;SDS011;17300;50.374;8.006;2024-01-06T16:13:42;2.60;;;2.40;;
30519;SDS011;17300;50.374;8.006;2024-01-06T16:16:09;2.60;;;2.40;;
30519;SDS011;17300;50.374;8.006;2024-01-06T16:18:37;2.50;;;2.30;;
30519;SDS011;17300;50.374;8.006;2024-01-06T16:21:04;2.27;;;2.07;;
30519;SDS011;17300;50.374;8.006;2024-01-06T16:23:30;2.43;;;2.23;;
30519;SDS011;17300;50.374;8.006;2024-01-06T16:25:57;2.27;;;2.07;;
30519;SDS011;17300;50.374;8.006;2024-01-06T16:28:24;2.57;;;2.37;;
30519;SDS011;17300;50.374;8.006;2024-01-06T16:30:51;2.40;;;2.20;;
30519;SDS011;17300;50.374;8.006;2024-01-06T16:33:18;2.87;;;2.67;;
30519;SDS011;17300;50.374;8.006;2024-01-06T16:35:46;2.97;;;2.70;;
30519;SDS011;17300;50.374;8.006;2024-01-06T16:38:12;2.60;;;2.40;;
30519;SDS011;17300;50.374;8.006;2024-01-06T16:40:39;3.00;;;2.80;;
30519;SDS011;17300;50.374;8.006;2024-01-06T16:43:06;3.30;;;3.00;;
30519;SDS011;17300;50.374;8.006;2024-01-06T16:45:33;3.03;;;2.73;;
30519;SDS011;17300;50.374;8.006;2024-01-06T16:47:59;3.40;;;3.10;;
30519;SDS011;17300;50.374;8.006;2024-01-06T16:50:26;3.43;;;3.10;;
30519;SDS011;17300;50.374;8.006;2024-01-06T16:52:54;3.30;;;3.00;;
30519;SDS011;17300;50.374;8.006;2024-01-06T16:55:21;4.23;;;3.60;;
30519;SDS011;17300;50.374;8.006;2024-01-06T16:57:48;3.80;;;3.30;;
30519;SDS011;17300;50.374;8.006;2024-01-06T17:00:15;3.70;;;3.40;;
30519;SDS011;17300;50.374;8.006;2024-01-06T17:02:44;3.60;;;3.30;;
30519;SDS011;17300;50.374;8.006;2024-01-06T17:05:11;4.13;;;3.60;;
30519;SDS011;17300;50.374;8.006;2024-01-06T17:07:38;4.37;;;3.80;;
30519;SDS011;17300;50.374;8.006;2024-01-06T17:10:21;3.87;;;3.53;;
30519;SDS011;17300;50.374;8.006;2024-01-06T18:00:48;4.60;;;4.20;;
30519;SDS011;17300;50.374;8.006;2024-01-06T18:06:53;5.40;;;4.90;;
30519;SDS011;17300;50.374;8.006;2024-01-06T18:13:48;4.03;;;3.63;;
30519;SDS011;17300;50.374;8.006;2024-01-06T18:16:38;3.70;;;3.40;;
30519;SDS011;17300;50.374;8.006;2024-01-06T18:19:24;4.00;;;3.60;;
30519;SDS011;17300;50.374;8.006;2024-01-06T18:25:56;3.63;;;3.33;;
30519;SDS011;17300;50.374;8.006;2024-01-06T18:28:24;3.83;;;3.17;;
30519;SDS011;17300;50.374;8.006;2024-01-06T18:31:13;3.33;;;3.03;;
30519;SDS011;17300;50.374;8.006;2024-01-06T18:37:10;3.50;;;3.20;;
30519;SDS011;17300;50.374;8.006;2024-01-06T18:43:02;2.90;;;2.70;;
30519;SDS011;17300;50.374;8.006;2024-01-06T18:45:51;3.10;;;2.80;;
30519;SDS011;17300;50.374;8.006;2024-01-06T18:48:17;3.53;;;3.23;;
30519;SDS011;17300;50.374;8.006;2024-01-06T18:50:44;3.40;;;3.10;;
30519;SDS011;17300;50.374;8.006;2024-01-06T18:53:16;3.77;;;3.07;;
30519;SDS011;17300;50.374;8.006;2024-01-06T18:55:46;4.63;;;4.07;;